createdAt,value
2019-04-30T00:00:43.100Z,7.55
2019-04-30T00:03:19.525Z,9.38
2019-04-30T00:05:49.427Z,7.92
2019-04-30T00:08:19.483Z,9.23
2019-04-30T00:10:48.974Z,9.80
2019-04-30T00:13:21.004Z,11.40
2019-04-30T00:15:52.696Z,11.63
2019-04-30T00:18:20.823Z,8.25
2019-04-30T00:20:50.865Z,9.08
2019-04-30T00:23:41.589Z,9.65
2019-04-30T00:28:44.383Z,9.55
2019-04-30T00:31:11.079Z,9.95
2019-04-30T00:33:40.483Z,8.33
2019-04-30T00:36:09.917Z,13.45
2019-04-30T00:38:39.363Z,9.63
2019-04-30T00:44:19.894Z,8.68
2019-04-30T00:46:48.257Z,8.93
2019-04-30T00:49:22.856Z,10.15
2019-04-30T00:51:49.808Z,13.72
2019-04-30T00:54:22.373Z,9.03
2019-04-30T00:56:51.366Z,11.12
2019-04-30T00:59:20.739Z,10.67
2019-04-30T01:01:56.340Z,11.95
2019-04-30T01:04:30.096Z,12.43
2019-04-30T01:07:00.288Z,10.70
2019-04-30T01:09:30.816Z,9.10
2019-04-30T01:12:00.068Z,9.48
2019-04-30T01:14:31.964Z,8.90
2019-04-30T01:17:03.690Z,8.05
2019-04-30T01:19:32.910Z,9.63
2019-04-30T01:22:02.344Z,12.53
2019-04-30T01:24:31.842Z,9.28
2019-04-30T01:27:06.752Z,11.10
2019-04-30T01:29:38.053Z,10.75
2019-04-30T01:32:03.811Z,13.00
2019-04-30T01:34:33.596Z,12.95
2019-04-30T01:37:02.896Z,11.22
2019-04-30T01:39:32.279Z,10.00
2019-04-30T01:42:02.862Z,11.33
2019-04-30T01:44:33.081Z,11.20
2019-04-30T01:47:02.349Z,11.15
2019-04-30T01:49:41.729Z,9.90
2019-04-30T01:52:02.687Z,12.85
2019-04-30T01:54:31.851Z,11.40
2019-04-30T01:57:05.507Z,10.85
2019-04-30T01:59:36.409Z,12.40
2019-04-30T02:02:06.068Z,14.78
2019-04-30T02:04:35.501Z,13.10
2019-04-30T02:07:04.674Z,15.15
2019-04-30T02:09:34.005Z,20.68
2019-04-30T02:12:03.201Z,11.83
2019-04-30T02:14:32.471Z,11.75
2019-04-30T02:17:01.696Z,15.80
2019-04-30T02:19:31.245Z,16.42
2019-04-30T02:22:00.523Z,14.60
2019-04-30T02:24:30.083Z,13.22
2019-04-30T02:26:59.502Z,13.68
2019-04-30T02:29:29.740Z,13.48
2019-04-30T02:32:00.566Z,15.80
2019-04-30T02:34:31.646Z,16.15
2019-04-30T02:37:09.816Z,15.32
2019-04-30T02:39:40.267Z,14.23
2019-04-30T02:44:41.062Z,13.70
2019-04-30T02:47:10.708Z,15.40
2019-04-30T02:49:40.391Z,18.50
2019-04-30T02:52:09.601Z,20.03
2019-04-30T02:54:39.633Z,18.07
2019-04-30T02:57:11.660Z,17.52
2019-04-30T02:59:59.943Z,19.55
2019-04-30T03:02:29.992Z,18.95
2019-04-30T03:05:00.248Z,20.45
2019-04-30T03:07:29.758Z,18.92
2019-04-30T03:09:59.793Z,22.37
2019-04-30T03:12:33.191Z,18.80
2019-04-30T03:15:00.560Z,21.48
2019-04-30T03:17:34.148Z,26.90
2019-04-30T03:20:05.299Z,21.27
2019-04-30T03:22:34.557Z,20.45
2019-04-30T03:25:05.110Z,19.35
2019-04-30T03:30:03.418Z,21.05
2019-04-30T03:32:36.750Z,21.83
2019-04-30T03:35:03.829Z,18.95
2019-04-30T03:37:33.080Z,25.77
2019-04-30T03:40:02.485Z,21.20
2019-04-30T03:42:31.711Z,27.42
2019-04-30T03:45:00.962Z,22.62
2019-04-30T03:47:30.316Z,24.37
2019-04-30T03:50:00.097Z,22.45
2019-04-30T03:52:29.486Z,23.30
2019-04-30T03:54:59.611Z,24.52
2019-04-30T03:57:30.421Z,26.48
2019-04-30T03:59:59.689Z,27.10
2019-04-30T04:02:33.094Z,27.35
2019-04-30T04:05:12.778Z,25.88
2019-04-30T04:07:43.774Z,24.43
2019-04-30T04:10:20.600Z,26.85
2019-04-30T04:12:50.041Z,29.63
2019-04-30T04:15:19.929Z,29.12
2019-04-30T04:17:50.406Z,28.40
2019-04-30T04:20:20.327Z,28.45
2019-04-30T04:22:49.994Z,29.95
2019-04-30T04:25:20.487Z,32.33
2019-04-30T04:30:21.987Z,29.63
2019-04-30T04:32:51.459Z,27.80
2019-04-30T04:35:20.712Z,28.07
2019-04-30T04:37:49.984Z,31.35
2019-04-30T04:40:20.974Z,32.15
2019-04-30T04:42:50.164Z,36.53
2019-04-30T04:45:19.953Z,35.30
2019-04-30T04:47:50.358Z,30.02
2019-04-30T04:52:49.834Z,31.90
2019-04-30T04:55:22.217Z,32.55
2019-04-30T04:58:01.828Z,31.87
2019-04-30T05:01:11.772Z,32.00
2019-04-30T05:14:52.821Z,37.65
2019-04-30T05:17:32.189Z,39.00
2019-04-30T05:20:19.898Z,33.05
2019-04-30T05:25:32.540Z,37.53
2019-04-30T05:30:51.270Z,33.33
2019-04-30T05:33:21.074Z,29.30
2019-04-30T05:35:50.383Z,33.25
2019-04-30T05:38:20.022Z,37.03
2019-04-30T05:40:49.644Z,36.10
2019-04-30T05:43:19.332Z,32.00
2019-04-30T05:45:51.314Z,31.97
2019-04-30T05:48:25.521Z,31.07
2019-04-30T05:50:56.275Z,29.37
2019-04-30T05:53:28.653Z,31.87
2019-04-30T05:55:59.311Z,28.60
2019-04-30T06:01:00.010Z,30.27
2019-04-30T06:03:32.838Z,32.98
2019-04-30T06:06:00.534Z,31.17
2019-04-30T06:08:34.612Z,28.23
2019-04-30T06:11:11.529Z,33.18
2019-04-30T06:13:45.362Z,29.50
2019-04-30T06:16:18.707Z,29.92
2019-04-30T06:18:48.556Z,27.70
2019-04-30T06:21:21.293Z,25.45
2019-04-30T06:23:49.274Z,27.27
2019-04-30T06:26:20.683Z,27.73
2019-04-30T06:28:52.203Z,26.05
2019-04-30T06:31:32.390Z,27.55
2019-04-30T06:33:58.617Z,27.55
2019-04-30T06:36:31.888Z,27.02
2019-04-30T06:47:41.908Z,27.90
2019-04-30T06:53:13.871Z,25.23
2019-04-30T07:13:18.851Z,22.55
2019-04-30T07:16:11.006Z,25.95
2019-04-30T07:18:40.575Z,26.23
2019-04-30T07:23:49.744Z,24.93
2019-04-30T07:26:40.404Z,27.37
2019-04-30T07:31:40.485Z,22.80
2019-04-30T07:37:14.594Z,22.87
2019-04-30T07:39:34.917Z,21.77
2019-04-30T07:42:09.308Z,25.85
2019-04-30T07:44:39.777Z,27.67
2019-04-30T07:47:10.107Z,28.12
2019-04-30T07:49:49.908Z,27.52
2019-04-30T07:52:12.074Z,24.47
2019-04-30T07:55:09.811Z,25.68
2019-04-30T07:57:43.024Z,24.18
2019-04-30T08:08:34.262Z,26.80
2019-04-30T08:16:45.763Z,25.48
2019-04-30T08:47:03.706Z,31.57
2019-04-30T08:49:33.361Z,29.00
2019-04-30T08:52:10.913Z,28.70
2019-04-30T08:54:49.751Z,27.90
2019-04-30T09:36:49.004Z,33.05
2019-04-30T09:39:19.919Z,35.60
2019-04-30T09:41:49.654Z,34.88
2019-04-30T09:44:25.685Z,34.20
2019-04-30T09:46:56.328Z,36.05
2019-04-30T09:52:19.347Z,31.82
2019-04-30T09:54:49.961Z,30.95
2019-04-30T09:57:21.915Z,33.30
2019-04-30T09:59:57.089Z,38.15
2019-04-30T10:02:32.261Z,33.83
2019-04-30T10:05:07.113Z,33.83
2019-04-30T10:52:42.729Z,36.33
2019-04-30T10:55:12.054Z,32.98
2019-04-30T10:57:41.257Z,37.28
2019-04-30T11:00:15.238Z,34.85
2019-04-30T11:02:44.556Z,35.17
2019-04-30T11:05:13.778Z,34.58
2019-04-30T11:16:15.667Z,37.30
2019-04-30T11:18:45.452Z,34.38
2019-04-30T11:21:15.207Z,38.55
2019-04-30T11:23:44.800Z,32.30
2019-04-30T11:26:15.078Z,35.30
2019-04-30T11:31:24.675Z,32.25
2019-04-30T11:34:02.226Z,32.03
2019-04-30T11:36:33.334Z,31.10
2019-04-30T11:39:03.647Z,33.28
2019-04-30T11:41:33.401Z,42.45
2019-04-30T11:44:03.037Z,35.78
2019-04-30T11:46:59.872Z,30.90
2019-04-30T11:49:31.099Z,36.17
2019-04-30T11:52:00.746Z,33.42
2019-04-30T11:54:30.280Z,32.33
2019-04-30T11:56:59.713Z,32.42
2019-04-30T11:59:47.631Z,33.18
2019-04-30T12:02:19.071Z,31.90
2019-04-30T12:07:28.169Z,29.40
2019-04-30T12:10:14.205Z,36.03
2019-04-30T12:12:43.480Z,32.95
2019-04-30T12:42:25.415Z,28.17
2019-04-30T12:43:48.577Z,30.62
2019-04-30T13:04:49.078Z,29.70
2019-04-30T13:07:20.617Z,26.23
2019-04-30T13:20:43.733Z,28.02
2019-04-30T14:27:13.896Z,22.98
2019-04-30T14:29:43.233Z,27.82
2019-04-30T14:32:12.438Z,25.20
2019-04-30T14:34:41.633Z,19.30
2019-04-30T14:37:10.988Z,22.32
2019-04-30T14:39:40.528Z,21.75
2019-04-30T14:42:11.799Z,25.30
2019-04-30T14:44:43.818Z,28.57
2019-04-30T14:47:15.898Z,23.47
2019-04-30T14:49:59.724Z,24.30
2019-04-30T14:52:21.489Z,26.95
2019-04-30T14:54:58.783Z,27.25
2019-04-30T14:57:45.843Z,28.85
2019-04-30T15:00:17.183Z,26.05
2019-04-30T15:02:52.060Z,23.35
2019-04-30T15:05:22.207Z,25.20
2019-04-30T15:07:51.397Z,21.93
2019-04-30T15:10:20.648Z,25.72
2019-04-30T15:12:49.928Z,24.55
2019-04-30T15:15:19.290Z,27.77
2019-04-30T15:17:49.308Z,22.77
2019-04-30T15:20:19.815Z,29.35
2019-04-30T15:25:22.887Z,22.93
2019-04-30T15:27:52.196Z,26.70
2019-04-30T15:30:22.012Z,24.60
2019-04-30T15:32:52.978Z,25.15
2019-04-30T15:35:22.257Z,30.95
2019-04-30T15:37:53.180Z,23.25
2019-04-30T15:40:22.568Z,30.10
2019-04-30T15:42:53.730Z,23.32
2019-04-30T15:45:23.152Z,28.35
2019-04-30T15:47:52.341Z,22.93
2019-04-30T15:50:21.547Z,26.05
2019-04-30T15:52:50.844Z,29.87
2019-04-30T15:55:20.149Z,25.00
2019-04-30T15:57:59.855Z,25.25
2019-04-30T16:00:31.283Z,33.03
2019-04-30T16:03:14.003Z,30.15
2019-04-30T16:05:45.004Z,26.12
2019-04-30T16:08:33.442Z,28.02
2019-04-30T16:11:10.361Z,29.63
2019-04-30T16:13:45.808Z,26.37
2019-04-30T16:16:15.194Z,26.90
2019-04-30T16:18:46.090Z,26.82
2019-04-30T16:21:15.312Z,29.70
2019-04-30T16:23:44.680Z,26.23
2019-04-30T16:26:14.188Z,23.07
2019-04-30T16:28:43.525Z,27.55
2019-04-30T16:31:12.819Z,29.20
2019-04-30T16:33:42.144Z,24.40
2019-04-30T16:36:11.349Z,26.97
2019-04-30T16:38:40.638Z,30.40
2019-04-30T16:41:10.145Z,25.08
2019-04-30T16:43:39.368Z,23.57
2019-04-30T16:46:17.102Z,26.02
2019-04-30T16:48:55.562Z,23.20
2019-04-30T16:51:30.648Z,29.90
2019-04-30T16:54:08.648Z,22.70
2019-04-30T16:56:40.189Z,24.80
2019-04-30T16:59:14.109Z,24.37
2019-04-30T17:01:56.642Z,27.20
2019-04-30T17:04:31.952Z,29.05
2019-04-30T17:07:03.018Z,27.15
2019-04-30T17:09:54.592Z,22.82
2019-04-30T17:12:26.034Z,25.08
2019-04-30T17:15:14.730Z,23.02
2019-04-30T17:17:49.609Z,26.10
2019-04-30T17:20:20.860Z,28.35
2019-04-30T17:22:50.528Z,24.32
2019-04-30T17:25:24.479Z,22.23
2019-04-30T17:27:55.219Z,25.50
2019-04-30T17:30:26.197Z,23.80
2019-04-30T17:38:04.908Z,24.20
2019-04-30T17:40:34.095Z,23.30
2019-04-30T17:43:03.400Z,24.15
2019-04-30T17:45:35.677Z,31.20
2019-04-30T17:48:09.849Z,22.62
2019-04-30T17:50:39.712Z,21.95
2019-04-30T17:53:09.173Z,25.05
2019-04-30T17:55:44.721Z,27.52
2019-04-30T17:58:22.306Z,22.67
2019-04-30T18:00:53.309Z,24.43
2019-04-30T18:03:25.812Z,24.43
2019-04-30T18:05:59.170Z,23.18
2019-04-30T18:08:28.565Z,23.47
2019-04-30T18:10:57.841Z,24.65
2019-04-30T18:13:30.103Z,20.72
2019-04-30T18:16:00.459Z,19.35
2019-04-30T18:18:35.724Z,18.75
2019-04-30T18:21:21.621Z,22.22
2019-04-30T18:23:52.715Z,19.77
2019-04-30T18:26:30.074Z,19.32
2019-04-30T18:28:59.508Z,20.17
2019-04-30T18:31:29.821Z,21.00
2019-04-30T18:33:59.413Z,23.20
2019-04-30T18:36:29.432Z,18.82
2019-04-30T18:38:59.048Z,20.82
2019-04-30T18:41:38.259Z,17.10
2019-04-30T18:44:09.465Z,21.15
2019-04-30T18:46:39.115Z,21.33
2019-04-30T18:49:11.298Z,21.93
2019-04-30T18:51:42.627Z,20.85
2019-04-30T18:54:11.797Z,19.12
2019-04-30T18:56:41.423Z,16.70
2019-04-30T18:59:32.630Z,16.33
2019-04-30T19:02:01.357Z,21.37
2019-04-30T19:04:40.894Z,19.55
2019-04-30T19:07:31.178Z,17.37
2019-04-30T19:10:02.043Z,17.57
2019-04-30T19:12:42.608Z,16.17
2019-04-30T19:17:57.245Z,18.25
2019-04-30T19:20:28.722Z,18.90
2019-04-30T19:22:58.164Z,19.77
2019-04-30T19:25:28.900Z,20.12
2019-04-30T19:28:09.620Z,17.45
2019-04-30T19:30:32.371Z,17.80
2019-04-30T19:33:00.678Z,17.70
2019-04-30T19:35:30.127Z,18.15
2019-04-30T19:38:00.051Z,19.70
2019-04-30T19:40:30.526Z,17.45
2019-04-30T19:43:00.187Z,20.08
2019-04-30T19:45:29.813Z,22.30
2019-04-30T19:47:59.489Z,20.47
2019-04-30T19:50:29.128Z,15.93
2019-04-30T19:52:58.973Z,19.77
2019-04-30T19:55:28.648Z,19.98
2019-04-30T19:57:59.869Z,19.73
2019-04-30T20:00:31.050Z,18.95
2019-04-30T20:03:00.748Z,18.37
2019-04-30T20:05:30.141Z,21.73
2019-04-30T20:08:02.708Z,17.98
2019-04-30T20:10:32.040Z,16.65
2019-04-30T20:13:01.306Z,18.32
2019-04-30T20:15:30.543Z,19.20
2019-04-30T20:18:01.049Z,19.65
2019-04-30T20:20:30.484Z,20.52
2019-04-30T20:23:01.319Z,19.60
2019-04-30T20:25:30.620Z,24.18
2019-04-30T20:27:59.981Z,20.32
2019-04-30T20:30:29.325Z,21.00
2019-04-30T20:32:59.398Z,24.20
2019-04-30T20:35:28.864Z,17.35
2019-04-30T20:38:16.098Z,20.52
2019-04-30T20:40:57.719Z,26.00
2019-04-30T20:43:18.658Z,18.90
2019-04-30T20:45:48.075Z,21.52
2019-04-30T20:48:18.805Z,20.85
2019-04-30T20:50:48.109Z,22.22
2019-04-30T20:53:17.401Z,19.45
2019-04-30T20:55:46.833Z,23.50
2019-04-30T20:58:16.208Z,25.77
2019-04-30T21:00:45.586Z,22.45
2019-04-30T21:03:14.925Z,24.72
2019-04-30T21:05:44.300Z,24.45
2019-04-30T21:08:13.541Z,24.72
2019-04-30T21:10:42.883Z,23.62
2019-04-30T21:13:12.423Z,20.37
2019-04-30T21:15:41.759Z,22.27
2019-04-30T21:18:11.400Z,25.12
2019-04-30T21:20:41.230Z,21.87
2019-04-30T21:23:10.844Z,21.45
2019-04-30T21:25:40.946Z,24.50
2019-04-30T21:28:10.350Z,25.92
2019-04-30T21:30:40.273Z,25.15
2019-04-30T21:33:14.105Z,29.00
2019-04-30T21:35:45.961Z,24.37
2019-04-30T21:38:16.020Z,29.35
2019-04-30T21:40:45.292Z,26.73
2019-04-30T21:43:14.609Z,26.30
2019-04-30T21:45:43.914Z,25.30
2019-04-30T21:48:13.833Z,26.02
2019-04-30T21:50:43.132Z,29.02
2019-04-30T21:53:12.354Z,25.45
2019-04-30T21:55:41.928Z,23.52
2019-04-30T21:58:11.263Z,27.13
2019-04-30T22:00:42.205Z,22.87
2019-04-30T22:03:11.562Z,24.23
2019-04-30T22:05:40.867Z,29.90
2019-04-30T22:08:10.410Z,22.60
2019-04-30T22:10:39.633Z,25.65
2019-04-30T22:13:09.083Z,26.40
2019-04-30T22:15:38.563Z,24.05
2019-04-30T22:18:07.816Z,26.12
2019-04-30T22:20:38.869Z,29.25
2019-04-30T22:23:08.192Z,28.15
2019-04-30T22:25:39.281Z,30.32
2019-04-30T22:28:08.535Z,25.05
2019-04-30T22:30:37.888Z,25.10
2019-04-30T22:33:08.958Z,24.85
2019-04-30T22:35:45.769Z,25.15
2019-04-30T22:38:18.945Z,23.47
2019-04-30T22:40:48.846Z,27.52
2019-04-30T22:43:18.210Z,28.47
2019-04-30T22:45:49.910Z,26.95
2019-04-30T22:48:19.149Z,28.42
2019-04-30T22:50:48.384Z,25.72
2019-04-30T22:53:17.608Z,26.65
2019-04-30T22:55:46.823Z,26.23
2019-04-30T22:58:16.166Z,32.88
2019-04-30T23:00:46.960Z,27.30
2019-04-30T23:03:17.794Z,26.52
2019-04-30T23:05:47.030Z,27.07
2019-04-30T23:08:16.231Z,26.45
2019-04-30T23:10:45.584Z,30.95
2019-04-30T23:13:14.843Z,30.05
2019-04-30T23:15:44.243Z,28.73
2019-04-30T23:18:13.577Z,30.15
2019-04-30T23:20:42.844Z,25.20
2019-04-30T23:23:12.184Z,32.15
2019-04-30T23:25:41.418Z,33.15
2019-04-30T23:28:10.933Z,31.37
2019-04-30T23:30:40.206Z,31.37
2019-04-30T23:33:09.528Z,30.30
2019-04-30T23:35:38.928Z,29.65
2019-04-30T23:38:08.202Z,29.90
2019-04-30T23:40:52.096Z,32.53
2019-04-30T23:43:21.406Z,38.63
2019-04-30T23:45:50.717Z,32.38
2019-04-30T23:48:20.115Z,35.43
2019-04-30T23:50:49.333Z,35.68
2019-04-30T23:53:18.570Z,34.78
2019-04-30T23:55:47.878Z,31.00
2019-04-30T23:58:17.141Z,31.97
